sensor_id;sensor_type;location;lat;lon;timestamp;P1;durP1;ratioP1;P2;durP2;ratioP2
30458;SDS011;74163;50.912;6.918;2024-02-23T00:00:00;3.08;;;2.70;;
30458;SDS011;74163;50.912;6.918;2024-02-23T00:00:34;3.80;;;2.30;;
30458;SDS011;74163;50.912;6.918;2024-02-23T00:01:06;4.32;;;2.38;;
30458;SDS011;74163;50.912;6.918;2024-02-23T00:01:38;3.33;;;2.45;;
30458;SDS011;74163;50.912;6.918;2024-02-23T00:02:10;3.10;;;2.40;;
30458;SDS011;74163;50.912;6.918;2024-02-23T00:02:43;4.00;;;2.55;;
30458;SDS011;74163;50.912;6.918;2024-02-23T00:03:15;3.30;;;2.10;;
30458;SDS011;74163;50.912;6.918;2024-02-23T00:03:47;3.03;;;2.63;;
30458;SDS011;74163;50.912;6.918;2024-02-23T00:04:19;4.18;;;2.50;;
30458;SDS011;74163;50.912;6.918;2024-02-23T00:04:50;3.00;;;2.30;;
30458;SDS011;74163;50.912;6.918;2024-02-23T00:05:22;3.50;;;2.75;;
30458;SDS011;74163;50.912;6.918;2024-02-23T00:05:54;3.30;;;2.60;;
30458;SDS011;74163;50.912;6.918;2024-02-23T00:06:26;3.17;;;2.60;;
30458;SDS011;74163;50.912;6.918;2024-02-23T00:06:58;3.70;;;2.70;;
30458;SDS011;74163;50.912;6.918;2024-02-23T00:07:30;3.30;;;2.40;;
30458;SDS011;74163;50.912;6.918;2024-02-23T00:08:02;2.97;;;2.60;;
30458;SDS011;74163;50.912;6.918;2024-02-23T00:08:34;3.40;;;2.67;;
30458;SDS011;74163;50.912;6.918;2024-02-23T00:09:05;3.80;;;2.63;;
30458;SDS011;74163;50.912;6.918;2024-02-23T00:09:37;3.30;;;2.55;;
30458;SDS011;74163;50.912;6.918;2024-02-23T00:10:09;3.53;;;2.63;;
30458;SDS011;74163;50.912;6.918;2024-02-23T00:10:41;3.43;;;2.70;;
30458;SDS011;74163;50.912;6.918;2024-02-23T00:11:13;3.80;;;2.78;;
30458;SDS011;74163;50.912;6.918;2024-02-23T00:11:45;3.35;;;2.72;;
30458;SDS011;74163;50.912;6.918;2024-02-23T00:12:17;3.88;;;2.78;;
30458;SDS011;74163;50.912;6.918;2024-02-23T00:12:49;3.40;;;2.78;;
30458;SDS011;74163;50.912;6.918;2024-02-23T00:13:20;3.15;;;2.50;;
30458;SDS011;74163;50.912;6.918;2024-02-23T00:13:52;3.00;;;2.67;;
30458;SDS011;74163;50.912;6.918;2024-02-23T00:14:24;3.58;;;2.53;;
30458;SDS011;74163;50.912;6.918;2024-02-23T00:14:57;3.42;;;2.30;;
30458;SDS011;74163;50.912;6.918;2024-02-23T00:15:29;3.55;;;2.80;;
30458;SDS011;74163;50.912;6.918;2024-02-23T00:16:01;3.60;;;2.70;;
30458;SDS011;74163;50.912;6.918;2024-02-23T00:16:36;3.08;;;2.65;;
30458;SDS011;74163;50.912;6.918;2024-02-23T00:17:09;3.35;;;2.67;;
30458;SDS011;74163;50.912;6.918;2024-02-23T00:17:41;3.00;;;2.70;;
30458;SDS011;74163;50.912;6.918;2024-02-23T00:18:14;3.03;;;2.65;;
30458;SDS011;74163;50.912;6.918;2024-02-23T00:18:46;3.30;;;2.67;;
30458;SDS011;74163;50.912;6.918;2024-02-23T00:19:18;3.30;;;2.60;;
30458;SDS011;74163;50.912;6.918;2024-02-23T00:19:52;3.65;;;2.60;;
30458;SDS011;74163;50.912;6.918;2024-02-23T00:20:24;3.35;;;2.78;;
30458;SDS011;74163;50.912;6.918;2024-02-23T00:20:56;2.92;;;2.50;;
30458;SDS011;74163;50.912;6.918;2024-02-23T00:21:28;4.63;;;2.25;;
30458;SDS011;74163;50.912;6.918;2024-02-23T00:22:00;3.35;;;2.50;;
30458;SDS011;74163;50.912;6.918;2024-02-23T00:22:32;3.55;;;2.67;;
30458;SDS011;74163;50.912;6.918;2024-02-23T00:23:04;2.97;;;2.67;;
30458;SDS011;74163;50.912;6.918;2024-02-23T00:23:36;3.40;;;2.70;;
30458;SDS011;74163;50.912;6.918;2024-02-23T00:24:08;3.20;;;2.50;;
30458;SDS011;74163;50.912;6.918;2024-02-23T00:24:40;3.30;;;2.60;;
30458;SDS011;74163;50.912;6.918;2024-02-23T00:25:12;3.72;;;2.70;;
30458;SDS011;74163;50.912;6.918;2024-02-23T00:25:44;3.00;;;2.53;;
30458;SDS011;74163;50.912;6.918;2024-02-23T00:26:16;3.05;;;2.33;;
30458;SDS011;74163;50.912;6.918;2024-02-23T00:26:47;3.70;;;2.88;;
30458;SDS011;74163;50.912;6.918;2024-02-23T00:27:19;3.53;;;2.70;;
30458;SDS011;74163;50.912;6.918;2024-02-23T00:27:51;3.97;;;2.78;;
30458;SDS011;74163;50.912;6.918;2024-02-23T00:28:23;3.58;;;2.95;;
30458;SDS011;74163;50.912;6.918;2024-02-23T00:28:55;3.25;;;2.95;;
30458;SDS011;74163;50.912;6.918;2024-02-23T00:29:26;3.13;;;2.83;;
30458;SDS011;74163;50.912;6.918;2024-02-23T00:29:58;3.60;;;3.08;;
30458;SDS011;74163;50.912;6.918;2024-02-23T00:30:31;3.53;;;3.17;;
30458;SDS011;74163;50.912;6.918;2024-02-23T00:31:02;3.75;;;2.70;;
30458;SDS011;74163;50.912;6.918;2024-02-23T00:31:34;3.40;;;2.67;;
30458;SDS011;74163;50.912;6.918;2024-02-23T00:32:08;3.40;;;2.88;;
30458;SDS011;74163;50.912;6.918;2024-02-23T00:32:40;3.00;;;2.67;;
30458;SDS011;74163;50.912;6.918;2024-02-23T00:33:14;3.65;;;2.90;;
30458;SDS011;74163;50.912;6.918;2024-02-23T00:33:46;3.78;;;2.60;;
30458;SDS011;74163;50.912;6.918;2024-02-23T00:34:17;3.30;;;2.90;;
30458;SDS011;74163;50.912;6.918;2024-02-23T00:34:50;3.95;;;2.70;;
30458;SDS011;74163;50.912;6.918;2024-02-23T00:35:21;3.97;;;2.80;;
30458;SDS011;74163;50.912;6.918;2024-02-23T00:35:53;3.88;;;2.90;;
30458;SDS011;74163;50.912;6.918;2024-02-23T00:36:25;3.60;;;2.35;;
30458;SDS011;74163;50.912;6.918;2024-02-23T00:36:57;3.33;;;2.58;;
30458;SDS011;74163;50.912;6.918;2024-02-23T00:37:29;3.30;;;3.00;;
30458;SDS011;74163;50.912;6.918;2024-02-23T00:38:01;3.72;;;3.25;;
30458;SDS011;74163;50.912;6.918;2024-02-23T00:38:32;2.95;;;2.55;;
30458;SDS011;74163;50.912;6.918;2024-02-23T00:39:05;3.97;;;2.45;;
30458;SDS011;74163;50.912;6.918;2024-02-23T00:39:37;3.20;;;2.80;;
30458;SDS011;74163;50.912;6.918;2024-02-23T00:40:10;3.80;;;2.85;;
30458;SDS011;74163;50.912;6.918;2024-02-23T00:40:42;4.72;;;2.65;;
30458;SDS011;74163;50.912;6.918;2024-02-23T00:41:14;3.20;;;2.58;;
30458;SDS011;74163;50.912;6.918;2024-02-23T00:41:46;4.35;;;2.70;;
30458;SDS011;74163;50.912;6.918;2024-02-23T00:42:18;4.28;;;2.67;;
30458;SDS011;74163;50.912;6.918;2024-02-23T00:42:50;4.10;;;3.28;;
30458;SDS011;74163;50.912;6.918;2024-02-23T00:43:22;3.38;;;3.08;;
30458;SDS011;74163;50.912;6.918;2024-02-23T00:43:53;3.70;;;3.13;;
30458;SDS011;74163;50.912;6.918;2024-02-23T00:44:25;3.30;;;2.97;;
30458;SDS011;74163;50.912;6.918;2024-02-23T00:44:57;3.47;;;2.97;;
30458;SDS011;74163;50.912;6.918;2024-02-23T00:45:29;3.55;;;3.17;;
30458;SDS011;74163;50.912;6.918;2024-02-23T00:46:01;4.10;;;2.60;;
30458;SDS011;74163;50.912;6.918;2024-02-23T00:46:33;3.22;;;2.75;;
30458;SDS011;74163;50.912;6.918;2024-02-23T00:47:05;4.25;;;3.13;;
30458;SDS011;74163;50.912;6.918;2024-02-23T00:47:37;3.75;;;2.70;;
30458;SDS011;74163;50.912;6.918;2024-02-23T00:48:09;3.20;;;2.90;;
30458;SDS011;74163;50.912;6.918;2024-02-23T00:48:42;3.33;;;3.03;;
30458;SDS011;74163;50.912;6.918;2024-02-23T00:49:14;4.00;;;2.85;;
30458;SDS011;74163;50.912;6.918;2024-02-23T00:49:46;4.40;;;2.90;;
30458;SDS011;74163;50.912;6.918;2024-02-23T00:50:19;3.30;;;2.80;;
30458;SDS011;74163;50.912;6.918;2024-02-23T00:50:51;3.08;;;2.30;;
30458;SDS011;74163;50.912;6.918;2024-02-23T00:51:23;3.40;;;2.80;;
30458;SDS011;74163;50.912;6.918;2024-02-23T00:51:54;3.30;;;2.50;;
30458;SDS011;74163;50.912;6.918;2024-02-23T00:52:27;3.50;;;2.90;;
30458;SDS011;74163;50.912;6.918;2024-02-23T00:52:58;3.78;;;2.72;;
30458;SDS011;74163;50.912;6.918;2024-02-23T00:53:31;3.35;;;2.60;;
30458;SDS011;74163;50.912;6.918;2024-02-23T00:54:03;3.13;;;2.50;;
30458;SDS011;74163;50.912;6.918;2024-02-23T00:54:35;3.55;;;2.63;;
30458;SDS011;74163;50.912;6.918;2024-02-23T00:55:07;3.97;;;2.65;;
30458;SDS011;74163;50.912;6.918;2024-02-23T00:55:39;3.22;;;2.60;;
30458;SDS011;74163;50.912;6.918;2024-02-23T00:56:11;3.35;;;2.72;;
30458;SDS011;74163;50.912;6.918;2024-02-23T00:56:42;3.65;;;2.50;;
30458;SDS011;74163;50.912;6.918;2024-02-23T00:57:22;3.53;;;3.03;;
30458;SDS011;74163;50.912;6.918;2024-02-23T00:57:54;3.55;;;2.60;;
30458;SDS011;74163;50.912;6.918;2024-02-23T00:58:25;2.97;;;2.50;;
30458;SDS011;74163;50.912;6.918;2024-02-23T00:58:57;3.13;;;2.72;;
30458;SDS011;74163;50.912;6.918;2024-02-23T00:59:29;3.30;;;2.83;;
30458;SDS011;74163;50.912;6.918;2024-02-23T01:00:01;3.80;;;3.20;;
30458;SDS011;74163;50.912;6.918;2024-02-23T01:00:33;3.15;;;2.40;;
30458;SDS011;74163;50.912;6.918;2024-02-23T01:01:05;3.30;;;2.40;;
30458;SDS011;74163;50.912;6.918;2024-02-23T01:01:40;3.60;;;2.92;;
30458;SDS011;74163;50.912;6.918;2024-02-23T01:02:12;3.40;;;2.60;;
30458;SDS011;74163;50.912;6.918;2024-02-23T01:02:44;2.85;;;2.42;;
30458;SDS011;74163;50.912;6.918;2024-02-23T01:03:16;3.00;;;2.60;;
30458;SDS011;74163;50.912;6.918;2024-02-23T01:03:49;3.22;;;2.92;;
30458;SDS011;74163;50.912;6.918;2024-02-23T01:04:21;3.28;;;2.65;;
30458;SDS011;74163;50.912;6.918;2024-02-23T01:04:53;3.50;;;2.50;;
30458;SDS011;74163;50.912;6.918;2024-02-23T01:05:24;3.15;;;2.47;;
30458;SDS011;74163;50.912;6.918;2024-02-23T01:05:56;3.08;;;2.60;;
30458;SDS011;74163;50.912;6.918;2024-02-23T01:06:28;3.38;;;2.53;;
30458;SDS011;74163;50.912;6.918;2024-02-23T01:07:00;4.50;;;2.67;;
30458;SDS011;74163;50.912;6.918;2024-02-23T01:07:32;4.30;;;2.78;;
30458;SDS011;74163;50.912;6.918;2024-02-23T01:08:07;3.10;;;2.58;;
30458;SDS011;74163;50.912;6.918;2024-02-23T01:08:38;4.13;;;2.40;;
30458;SDS011;74163;50.912;6.918;2024-02-23T01:09:10;3.30;;;2.75;;
30458;SDS011;74163;50.912;6.918;2024-02-23T01:09:45;4.50;;;2.60;;
30458;SDS011;74163;50.912;6.918;2024-02-23T01:10:17;3.40;;;2.80;;
30458;SDS011;74163;50.912;6.918;2024-02-23T01:10:49;3.20;;;2.78;;
30458;SDS011;74163;50.912;6.918;2024-02-23T01:11:21;3.33;;;2.40;;
30458;SDS011;74163;50.912;6.918;2024-02-23T01:11:53;3.63;;;2.83;;
30458;SDS011;74163;50.912;6.918;2024-02-23T01:12:25;4.18;;;2.70;;
30458;SDS011;74163;50.912;6.918;2024-02-23T01:12:57;3.10;;;2.50;;
30458;SDS011;74163;50.912;6.918;2024-02-23T01:13:35;4.90;;;2.90;;
30458;SDS011;74163;50.912;6.918;2024-02-23T01:14:08;3.30;;;2.70;;
30458;SDS011;74163;50.912;6.918;2024-02-23T01:14:40;3.90;;;2.63;;
30458;SDS011;74163;50.912;6.918;2024-02-23T01:15:11;3.20;;;2.90;;
30458;SDS011;74163;50.912;6.918;2024-02-23T01:15:43;3.60;;;2.67;;
30458;SDS011;74163;50.912;6.918;2024-02-23T01:16:15;4.15;;;2.50;;
30458;SDS011;74163;50.912;6.918;2024-02-23T01:16:47;3.00;;;2.63;;
30458;SDS011;74163;50.912;6.918;2024-02-23T01:17:19;4.15;;;2.88;;
30458;SDS011;74163;50.912;6.918;2024-02-23T01:17:51;4.05;;;2.97;;
30458;SDS011;74163;50.912;6.918;2024-02-23T01:18:23;4.97;;;2.90;;
30458;SDS011;74163;50.912;6.918;2024-02-23T01:18:56;3.60;;;3.05;;
30458;SDS011;74163;50.912;6.918;2024-02-23T01:19:28;2.65;;;2.20;;
30458;SDS011;74163;50.912;6.918;2024-02-23T01:20:00;3.25;;;2.83;;
30458;SDS011;74163;50.912;6.918;2024-02-23T01:20:32;4.53;;;2.63;;
30458;SDS011;74163;50.912;6.918;2024-02-23T01:21:04;3.42;;;2.80;;
30458;SDS011;74163;50.912;6.918;2024-02-23T01:21:36;4.60;;;2.95;;
30458;SDS011;74163;50.912;6.918;2024-02-23T01:22:08;4.15;;;3.10;;
30458;SDS011;74163;50.912;6.918;2024-02-23T01:22:40;5.07;;;2.97;;
30458;SDS011;74163;50.912;6.918;2024-02-23T01:23:12;3.13;;;2.53;;
30458;SDS011;74163;50.912;6.918;2024-02-23T01:23:43;3.85;;;2.47;;
30458;SDS011;74163;50.912;6.918;2024-02-23T01:24:15;3.37;;;2.67;;
30458;SDS011;74163;50.912;6.918;2024-02-23T01:24:47;3.35;;;2.58;;
30458;SDS011;74163;50.912;6.918;2024-02-23T01:25:19;3.70;;;2.80;;
30458;SDS011;74163;50.912;6.918;2024-02-23T01:25:51;4.30;;;2.90;;
30458;SDS011;74163;50.912;6.918;2024-02-23T01:26:23;3.75;;;2.72;;
30458;SDS011;74163;50.912;6.918;2024-02-23T01:26:55;5.47;;;2.85;;
30458;SDS011;74163;50.912;6.918;2024-02-23T01:27:27;3.70;;;2.83;;
30458;SDS011;74163;50.912;6.918;2024-02-23T01:27:58;3.50;;;3.03;;
30458;SDS011;74163;50.912;6.918;2024-02-23T01:28:30;5.60;;;3.20;;
30458;SDS011;74163;50.912;6.918;2024-02-23T01:29:02;3.92;;;3.05;;
30458;SDS011;74163;50.912;6.918;2024-02-23T01:29:34;4.57;;;3.30;;
30458;SDS011;74163;50.912;6.918;2024-02-23T01:30:06;3.30;;;2.80;;
30458;SDS011;74163;50.912;6.918;2024-02-23T01:30:39;4.57;;;3.08;;
30458;SDS011;74163;50.912;6.918;2024-02-23T01:31:11;5.43;;;2.95;;
30458;SDS011;74163;50.912;6.918;2024-02-23T01:31:43;5.25;;;3.00;;
30458;SDS011;74163;50.912;6.918;2024-02-23T01:32:15;4.15;;;2.97;;
30458;SDS011;74163;50.912;6.918;2024-02-23T01:32:47;4.30;;;2.78;;
30458;SDS011;74163;50.912;6.918;2024-02-23T01:33:19;4.03;;;2.92;;
30458;SDS011;74163;50.912;6.918;2024-02-23T01:33:51;3.60;;;3.10;;
30458;SDS011;74163;50.912;6.918;2024-02-23T01:34:24;4.10;;;2.80;;
30458;SDS011;74163;50.912;6.918;2024-02-23T01:34:56;3.53;;;2.70;;
30458;SDS011;74163;50.912;6.918;2024-02-23T01:35:28;4.03;;;2.80;;
30458;SDS011;74163;50.912;6.918;2024-02-23T01:36:00;5.45;;;2.95;;
30458;SDS011;74163;50.912;6.918;2024-02-23T01:36:32;3.80;;;2.75;;
30458;SDS011;74163;50.912;6.918;2024-02-23T01:37:03;4.30;;;3.10;;
30458;SDS011;74163;50.912;6.918;2024-02-23T01:37:35;4.50;;;3.17;;
30458;SDS011;74163;50.912;6.918;2024-02-23T01:38:07;4.82;;;3.10;;
30458;SDS011;74163;50.912;6.918;2024-02-23T01:38:39;4.00;;;2.83;;
30458;SDS011;74163;50.912;6.918;2024-02-23T01:39:11;3.58;;;2.85;;
30458;SDS011;74163;50.912;6.918;2024-02-23T01:39:43;3.80;;;3.00;;
30458;SDS011;74163;50.912;6.918;2024-02-23T01:40:15;4.22;;;2.92;;
30458;SDS011;74163;50.912;6.918;2024-02-23T01:40:47;4.80;;;2.70;;
30458;SDS011;74163;50.912;6.918;2024-02-23T01:41:18;4.38;;;2.55;;
30458;SDS011;74163;50.912;6.918;2024-02-23T01:41:50;4.18;;;2.97;;
30458;SDS011;74163;50.912;6.918;2024-02-23T01:42:22;3.90;;;3.10;;
30458;SDS011;74163;50.912;6.918;2024-02-23T01:43:00;4.35;;;2.70;;
30458;SDS011;74163;50.912;6.918;2024-02-23T01:43:33;3.60;;;2.83;;
30458;SDS011;74163;50.912;6.918;2024-02-23T01:44:05;4.30;;;2.70;;
30458;SDS011;74163;50.912;6.918;2024-02-23T01:44:37;3.92;;;2.83;;
30458;SDS011;74163;50.912;6.918;2024-02-23T01:45:10;3.92;;;2.95;;
30458;SDS011;74163;50.912;6.918;2024-02-23T01:45:42;4.70;;;3.20;;
30458;SDS011;74163;50.912;6.918;2024-02-23T01:46:13;4.30;;;2.88;;
30458;SDS011;74163;50.912;6.918;2024-02-23T01:46:46;5.10;;;3.50;;
30458;SDS011;74163;50.912;6.918;2024-02-23T01:47:18;4.40;;;3.22;;
30458;SDS011;74163;50.912;6.918;2024-02-23T01:47:50;4.80;;;3.05;;
30458;SDS011;74163;50.912;6.918;2024-02-23T01:48:22;4.25;;;2.80;;
30458;SDS011;74163;50.912;6.918;2024-02-23T01:48:54;3.80;;;3.25;;
30458;SDS011;74163;50.912;6.918;2024-02-23T01:49:28;3.92;;;3.00;;
30458;SDS011;74163;50.912;6.918;2024-02-23T01:50:00;4.50;;;2.90;;
30458;SDS011;74163;50.912;6.918;2024-02-23T01:50:32;5.05;;;2.95;;
30458;SDS011;74163;50.912;6.918;2024-02-23T01:51:05;4.13;;;2.97;;
30458;SDS011;74163;50.912;6.918;2024-02-23T01:51:37;6.00;;;3.13;;
30458;SDS011;74163;50.912;6.918;2024-02-23T01:52:09;4.50;;;3.13;;
30458;SDS011;74163;50.912;6.918;2024-02-23T01:52:45;4.00;;;3.20;;
30458;SDS011;74163;50.912;6.918;2024-02-23T01:53:17;4.88;;;3.00;;
30458;SDS011;74163;50.912;6.918;2024-02-23T01:53:49;4.40;;;2.95;;
30458;SDS011;74163;50.912;6.918;2024-02-23T01:54:22;5.25;;;3.45;;
30458;SDS011;74163;50.912;6.918;2024-02-23T01:54:54;4.50;;;3.00;;
30458;SDS011;74163;50.912;6.918;2024-02-23T01:55:26;4.90;;;3.10;;
30458;SDS011;74163;50.912;6.918;2024-02-23T01:55:58;4.93;;;2.80;;
30458;SDS011;74163;50.912;6.918;2024-02-23T01:56:31;5.30;;;2.80;;
30458;SDS011;74163;50.912;6.918;2024-02-23T01:57:04;3.20;;;2.60;;
30458;SDS011;74163;50.912;6.918;2024-02-23T01:57:57;3.83;;;2.92;;
30458;SDS011;74163;50.912;6.918;2024-02-23T01:58:30;4.15;;;2.83;;
30458;SDS011;74163;50.912;6.918;2024-02-23T01:59:03;5.53;;;3.20;;
30458;SDS011;74163;50.912;6.918;2024-02-23T01:59:35;4.55;;;3.03;;
30458;SDS011;74163;50.912;6.918;2024-02-23T02:00:09;4.32;;;2.90;;
30458;SDS011;74163;50.912;6.918;2024-02-23T02:00:49;5.18;;;3.20;;
30458;SDS011;74163;50.912;6.918;2024-02-23T02:01:21;5.03;;;3.13;;
30458;SDS011;74163;50.912;6.918;2024-02-23T02:01:53;5.35;;;3.40;;
30458;SDS011;74163;50.912;6.918;2024-02-23T02:02:25;5.07;;;2.97;;
30458;SDS011;74163;50.912;6.918;2024-02-23T02:02:57;5.25;;;3.00;;
30458;SDS011;74163;50.912;6.918;2024-02-23T02:03:29;5.30;;;3.08;;
30458;SDS011;74163;50.912;6.918;2024-02-23T02:04:01;5.32;;;2.67;;
30458;SDS011;74163;50.912;6.918;2024-02-23T02:04:34;6.28;;;3.50;;
30458;SDS011;74163;50.912;6.918;2024-02-23T02:05:07;4.93;;;3.00;;
30458;SDS011;74163;50.912;6.918;2024-02-23T02:05:39;4.90;;;3.03;;
30458;SDS011;74163;50.912;6.918;2024-02-23T02:06:11;4.38;;;3.00;;
30458;SDS011;74163;50.912;6.918;2024-02-23T02:06:44;4.63;;;3.00;;
30458;SDS011;74163;50.912;6.918;2024-02-23T02:07:17;5.78;;;3.10;;
30458;SDS011;74163;50.912;6.918;2024-02-23T02:07:49;4.85;;;3.03;;
30458;SDS011;74163;50.912;6.918;2024-02-23T02:08:22;5.28;;;3.20;;
30458;SDS011;74163;50.912;6.918;2024-02-23T02:08:54;5.43;;;3.05;;
30458;SDS011;74163;50.912;6.918;2024-02-23T02:09:26;4.82;;;2.97;;
30458;SDS011;74163;50.912;6.918;2024-02-23T02:09:58;5.57;;;3.00;;
30458;SDS011;74163;50.912;6.918;2024-02-23T02:10:30;5.35;;;2.80;;
30458;SDS011;74163;50.912;6.918;2024-02-23T02:11:02;4.97;;;3.05;;
30458;SDS011;74163;50.912;6.918;2024-02-23T02:11:34;5.07;;;3.20;;
30458;SDS011;74163;50.912;6.918;2024-02-23T02:12:06;4.60;;;3.00;;
30458;SDS011;74163;50.912;6.918;2024-02-23T02:12:38;5.85;;;2.90;;
30458;SDS011;74163;50.912;6.918;2024-02-23T02:13:10;4.88;;;2.72;;
30458;SDS011;74163;50.912;6.918;2024-02-23T02:13:44;4.30;;;2.90;;
30458;SDS011;74163;50.912;6.918;2024-02-23T02:14:16;5.00;;;2.80;;
30458;SDS011;74163;50.912;6.918;2024-02-23T02:14:48;4.40;;;2.70;;
30458;SDS011;74163;50.912;6.918;2024-02-23T02:15:20;4.55;;;3.08;;
30458;SDS011;74163;50.912;6.918;2024-02-23T02:15:52;3.38;;;2.78;;
30458;SDS011;74163;50.912;6.918;2024-02-23T02:16:24;4.65;;;2.83;;
30458;SDS011;74163;50.912;6.918;2024-02-23T02:16:56;4.90;;;3.17;;
30458;SDS011;74163;50.912;6.918;2024-02-23T02:17:28;5.25;;;3.20;;
30458;SDS011;74163;50.912;6.918;2024-02-23T02:18:01;4.60;;;3.00;;
30458;SDS011;74163;50.912;6.918;2024-02-23T02:18:33;5.22;;;3.30;;
30458;SDS011;74163;50.912;6.918;2024-02-23T02:19:05;5.88;;;3.03;;
30458;SDS011;74163;50.912;6.918;2024-02-23T02:19:39;4.25;;;3.13;;
30458;SDS011;74163;50.912;6.918;2024-02-23T02:20:18;3.90;;;2.80;;
30458;SDS011;74163;50.912;6.918;2024-02-23T02:20:55;6.30;;;3.13;;
30458;SDS011;74163;50.912;6.918;2024-02-23T02:21:28;5.40;;;3.20;;
30458;SDS011;74163;50.912;6.918;2024-02-23T02:22:00;5.60;;;3.30;;
30458;SDS011;74163;50.912;6.918;2024-02-23T02:22:32;5.38;;;3.40;;
30458;SDS011;74163;50.912;6.918;2024-02-23T02:23:04;6.78;;;3.05;;
30458;SDS011;74163;50.912;6.918;2024-02-23T02:23:36;3.80;;;2.97;;
30458;SDS011;74163;50.912;6.918;2024-02-23T02:24:08;5.93;;;3.20;;
30458;SDS011;74163;50.912;6.918;2024-02-23T02:24:42;4.70;;;2.90;;
30458;SDS011;74163;50.912;6.918;2024-02-23T02:25:14;6.90;;;3.63;;
30458;SDS011;74163;50.912;6.918;2024-02-23T02:25:51;4.90;;;3.20;;
30458;SDS011;74163;50.912;6.918;2024-02-23T02:26:23;5.80;;;3.30;;
30458;SDS011;74163;50.912;6.918;2024-02-23T02:26:56;4.60;;;3.20;;
30458;SDS011;74163;50.912;6.918;2024-02-23T02:27:27;6.07;;;3.28;;
30458;SDS011;74163;50.912;6.918;2024-02-23T02:27:59;4.22;;;3.17;;
30458;SDS011;74163;50.912;6.918;2024-02-23T02:28:31;5.43;;;3.33;;
30458;SDS011;74163;50.912;6.918;2024-02-23T02:29:03;4.82;;;3.05;;
30458;SDS011;74163;50.912;6.918;2024-02-23T02:29:35;5.20;;;2.85;;
30458;SDS011;74163;50.912;6.918;2024-02-23T02:30:07;4.80;;;2.90;;
30458;SDS011;74163;50.912;6.918;2024-02-23T02:30:39;7.03;;;3.10;;
30458;SDS011;74163;50.912;6.918;2024-02-23T02:31:11;3.38;;;2.70;;
30458;SDS011;74163;50.912;6.918;2024-02-23T02:31:43;5.13;;;3.00;;
30458;SDS011;74163;50.912;6.918;2024-02-23T02:32:14;3.92;;;3.00;;
30458;SDS011;74163;50.912;6.918;2024-02-23T02:32:46;5.07;;;3.33;;
30458;SDS011;74163;50.912;6.918;2024-02-23T02:33:18;5.85;;;3.30;;
30458;SDS011;74163;50.912;6.918;2024-02-23T02:33:50;5.60;;;3.45;;
30458;SDS011;74163;50.912;6.918;2024-02-23T02:34:22;5.18;;;3.05;;
30458;SDS011;74163;50.912;6.918;2024-02-23T02:34:55;4.55;;;2.88;;
30458;SDS011;74163;50.912;6.918;2024-02-23T02:35:27;6.32;;;3.38;;
30458;SDS011;74163;50.912;6.918;2024-02-23T02:35:59;3.83;;;2.85;;
30458;SDS011;74163;50.912;6.918;2024-02-23T02:36:31;5.22;;;3.17;;
30458;SDS011;74163;50.912;6.918;2024-02-23T02:37:03;3.85;;;3.10;;
30458;SDS011;74163;50.912;6.918;2024-02-23T02:37:34;4.65;;;3.10;;
30458;SDS011;74163;50.912;6.918;2024-02-23T02:38:06;4.45;;;3.40;;
30458;SDS011;74163;50.912;6.918;2024-02-23T02:38:39;5.43;;;3.50;;
30458;SDS011;74163;50.912;6.918;2024-02-23T02:39:11;5.10;;;3.22;;
30458;SDS011;74163;50.912;6.918;2024-02-23T02:39:42;8.47;;;3.87;;
30458;SDS011;74163;50.912;6.918;2024-02-23T02:40:14;4.82;;;3.42;;
30458;SDS011;74163;50.912;6.918;2024-02-23T02:40:46;4.18;;;3.50;;
30458;SDS011;74163;50.912;6.918;2024-02-23T02:41:18;5.43;;;3.85;;
30458;SDS011;74163;50.912;6.918;2024-02-23T02:41:51;4.50;;;3.67;;
30458;SDS011;74163;50.912;6.918;2024-02-23T02:42:23;5.32;;;3.35;;
30458;SDS011;74163;50.912;6.918;2024-02-23T02:42:54;6.22;;;3.22;;
30458;SDS011;74163;50.912;6.918;2024-02-23T02:43:26;6.63;;;3.33;;
30458;SDS011;74163;50.912;6.918;2024-02-23T02:43:59;6.72;;;3.30;;
30458;SDS011;74163;50.912;6.918;2024-02-23T02:44:31;6.50;;;3.45;;
30458;SDS011;74163;50.912;6.918;2024-02-23T02:45:03;5.93;;;3.70;;
30458;SDS011;74163;50.912;6.918;2024-02-23T02:45:35;6.78;;;3.53;;
30458;SDS011;74163;50.912;6.918;2024-02-23T02:46:07;6.00;;;3.63;;
30458;SDS011;74163;50.912;6.918;2024-02-23T02:46:38;5.60;;;3.47;;
30458;SDS011;74163;50.912;6.918;2024-02-23T02:47:11;6.28;;;3.40;;
30458;SDS011;74163;50.912;6.918;2024-02-23T02:47:43;5.57;;;3.25;;
30458;SDS011;74163;50.912;6.918;2024-02-23T02:48:15;6.25;;;3.80;;
30458;SDS011;74163;50.912;6.918;2024-02-23T02:48:47;6.05;;;3.28;;
30458;SDS011;74163;50.912;6.918;2024-02-23T02:49:18;5.07;;;3.38;;
30458;SDS011;74163;50.912;6.918;2024-02-23T02:50:03;5.80;;;3.10;;
30458;SDS011;74163;50.912;6.918;2024-02-23T02:50:39;5.00;;;3.20;;
30458;SDS011;74163;50.912;6.918;2024-02-23T02:51:15;6.03;;;3.63;;
30458;SDS011;74163;50.912;6.918;2024-02-23T02:51:47;4.63;;;3.17;;
30458;SDS011;74163;50.912;6.918;2024-02-23T02:52:19;4.43;;;3.10;;
30458;SDS011;74163;50.912;6.918;2024-02-23T02:52:51;6.32;;;3.50;;
30458;SDS011;74163;50.912;6.918;2024-02-23T02:53:23;6.30;;;3.53;;
30458;SDS011;74163;50.912;6.918;2024-02-23T02:53:55;4.72;;;3.50;;
30458;SDS011;74163;50.912;6.918;2024-02-23T02:54:27;6.75;;;3.40;;
30458;SDS011;74163;50.912;6.918;2024-02-23T02:54:59;5.57;;;3.28;;
30458;SDS011;74163;50.912;6.918;2024-02-23T02:55:31;4.07;;;3.38;;
30458;SDS011;74163;50.912;6.918;2024-02-23T02:56:05;5.95;;;3.10;;
30458;SDS011;74163;50.912;6.918;2024-02-23T02:56:41;5.90;;;3.25;;
30458;SDS011;74163;50.912;6.918;2024-02-23T02:57:13;6.40;;;3.60;;
30458;SDS011;74163;50.912;6.918;2024-02-23T02:57:45;4.65;;;3.35;;
30458;SDS011;74163;50.912;6.918;2024-02-23T02:58:17;5.93;;;3.30;;
30458;SDS011;74163;50.912;6.918;2024-02-23T02:58:49;6.50;;;3.05;;
30458;SDS011;74163;50.912;6.918;2024-02-23T02:59:21;5.72;;;3.38;;
30458;SDS011;74163;50.912;6.918;2024-02-23T02:59:58;5.00;;;3.33;;
30458;SDS011;74163;50.912;6.918;2024-02-23T03:00:30;3.90;;;3.50;;
30458;SDS011;74163;50.912;6.918;2024-02-23T03:01:02;4.07;;;3.30;;
30458;SDS011;74163;50.912;6.918;2024-02-23T03:01:35;5.20;;;3.00;;
30458;SDS011;74163;50.912;6.918;2024-02-23T03:02:07;4.38;;;3.30;;
30458;SDS011;74163;50.912;6.918;2024-02-23T03:02:38;4.40;;;3.10;;
30458;SDS011;74163;50.912;6.918;2024-02-23T03:03:10;5.18;;;3.08;;
30458;SDS011;74163;50.912;6.918;2024-02-23T03:03:42;6.13;;;3.30;;
30458;SDS011;74163;50.912;6.918;2024-02-23T03:04:14;5.88;;;3.40;;
30458;SDS011;74163;50.912;6.918;2024-02-23T03:04:48;4.05;;;3.53;;
30458;SDS011;74163;50.912;6.918;2024-02-23T03:05:22;5.68;;;3.40;;
30458;SDS011;74163;50.912;6.918;2024-02-23T03:05:54;6.07;;;3.38;;
30458;SDS011;74163;50.912;6.918;2024-02-23T03:06:26;4.57;;;3.35;;
30458;SDS011;74163;50.912;6.918;2024-02-23T03:06:58;4.78;;;3.10;;
30458;SDS011;74163;50.912;6.918;2024-02-23T03:07:30;5.43;;;3.25;;
30458;SDS011;74163;50.912;6.918;2024-02-23T03:08:02;5.60;;;3.22;;
30458;SDS011;74163;50.912;6.918;2024-02-23T03:08:34;6.03;;;3.28;;
30458;SDS011;74163;50.912;6.918;2024-02-23T03:09:06;5.00;;;3.60;;
30458;SDS011;74163;50.912;6.918;2024-02-23T03:09:38;4.80;;;3.40;;
30458;SDS011;74163;50.912;6.918;2024-02-23T03:10:10;5.50;;;3.45;;
30458;SDS011;74163;50.912;6.918;2024-02-23T03:10:41;4.80;;;2.97;;
30458;SDS011;74163;50.912;6.918;2024-02-23T03:11:13;4.65;;;3.08;;
30458;SDS011;74163;50.912;6.918;2024-02-23T03:11:45;5.07;;;3.40;;
30458;SDS011;74163;50.912;6.918;2024-02-23T03:12:17;5.07;;;3.15;;
30458;SDS011;74163;50.912;6.918;2024-02-23T03:13:01;4.88;;;3.28;;
30458;SDS011;74163;50.912;6.918;2024-02-23T03:13:33;4.78;;;3.00;;
30458;SDS011;74163;50.912;6.918;2024-02-23T03:14:04;3.83;;;2.85;;
30458;SDS011;74163;50.912;6.918;2024-02-23T03:14:36;6.38;;;3.42;;
30458;SDS011;74163;50.912;6.918;2024-02-23T03:15:09;5.20;;;2.95;;